Terminal Aerodrome Forecast
Issued by NWS Charleston, WV

Current Version | Previous Version | Graphics & Text | Print | Product List | Glossary On
Versions: 1 2 3 4 5 6 7 8 9 10 11 12 13 14 15 16 17 18 19 20 21 22 23 24 25
000
FTUS41 KRLX 271543 AAB
TAFPKB
TAF AMD
KPKB 271543Z 2716/2812 34005KT 5SM BR OVC012
     FM271700 03004KT P6SM OVC020
     FM272100 VRB03KT P6SM BKN030
     FM280200 VRB03KT P6SM SCT030 BKN080
     FM280700 VRB03KT 4SM SHRA OVC030=

USA.gov is the U.S. government's official web portal to all federal, state and local government web resources and services.